EGBBLSZA

Guest
Details From EGBB - Birmingham
To LSZA - Lugano
Flight Number -
Tags decoded
Created
Modified
Stats Distance 593 nm / 1,098 km
Max Altitude 0 ft / 0 m
Waypoints 5
Social Downloads 2
Likes 0
Share VATSIM

Download

Looking for another format? Having issues loading an existing format? Contact us
Advertisement - Login to hide

Notes

Requested: EGBB KOTUN IXORA ZA552 LSZA

Route

EGBB KOTUN IXORA ZA552 LSZA

ID Type Via Altitude Latitude Longitude Leg Dist Tot Dist Heading (true) Name
O EGBB APT - 0 ft / 0 m 52.45597˚ -1.75038˚ - 0 nm - Birmingham
KOTUN FIX - 0 ft / 0 m 48.72444˚ 3.87111˚ 309 nm 309 nm 134° / 138° -
IXORA FIX - 0 ft / 0 m 45.83667˚ 8.58889˚ 258 nm 568 nm 130° / 134° -
ZA552 FIX - 0 ft / 0 m 45.77139˚ 8.79694˚ 9 nm 578 nm 114° / 114° -
O LSZA APT - 0 ft / 0 m 46.00427˚ 8.91058˚ 14 nm 593 nm 19° / 19° Lugano

Altitude Profile

Advertisement - Login to hide

Weather


0- 5 10 15 20 25 30 35+ Temperature / ° C

Clouds and Precipitation
Forecast for 2018-05-27 00:00 UTC. Updated 17 minutes ago

Ground ~20,000 ft ~40,000 ft Winds

EGBB

Details ICAO EGBB (BHX)
Name Birmingham
Region United Kingdom
Timezone Europe/London (UTC+1.0)
Stats Elevation 327 ft / 100 m (AMSL)
Location 52.455966° -1.750378°
Runways 1
Magnetic Variation 1.072° W

METAR

EGBB 262320Z 04009KT CAVOK 14/08 Q1019

Decode

TAF

TAF EGBB 261657Z 2618/2718 04012KT 9999 FEW025 TEMPO 2621/2714 6000 TSRA PROB30 TEMPO 2622/2714 04015G25KT 2000 +SHRA TSGR BKN010 BKN040CB TEMPO 2714/2718 6000 TSRA

Decode

Departure Runways

ID Width Length Bearing (true) Bearing (mag) Surface Threshold Offset Overrun Length
15 151 ft / 46 m 8,477 ft / 2,584 m 145.87° 146.94° Asphalt 925 ft / 282 m 0 ft / 0 m
33 151 ft / 46 m 8,477 ft / 2,584 m 325.89° 326.96° Asphalt 958 ft / 292 m 0 ft / 0 m

LSZA

Details ICAO LSZA (LUG)
Name Lugano
Region Switzerland
Timezone Europe/Zurich (UTC+2.0)
Stats Elevation 915 ft / 279 m (AMSL)
Location 46.004275° 8.910579°
Runways 1
Magnetic Variation 2.476° E

METAR

LSZA 262320Z AUTO 18004KT 110V220 CAVOK 20/14 Q1021

Decode

TAF

Not found

Destination Runways

ID Width Length Bearing (true) Bearing (mag) Surface Threshold Offset Overrun Length
01 98 ft / 30 m 4,430 ft / 1,350 m 18.79° 16.31° Asphalt 361 ft / 110 m 0 ft / 0 m
19 98 ft / 30 m 4,430 ft / 1,350 m 198.79° 196.31° Asphalt 673 ft / 205 m 0 ft / 0 m

Approach Navaids

Runway Type Ident Frequency Range Bearing (true) Bearing (mag) Slope Elevation
01 Localiser ILU 111.50 MHz 18 nm / 33 km 18.79° 16.31° - 928 ft / 283 m (AMSL)
01 Glidescope ILU 111.50 MHz 10 nm / 19 km 19.99° 17.51° 6.00° 928 ft / 283 m (AMSL)
01 DME ILU 111.50 MHz 18 nm / 33 km - - - 928 ft / 283 m (AMSL)